Sparta, TN

8:33 PM CDT on August 25, 2016 (GMT -0500)
Bakers Crossroads | | Change Station

Elev 1027 ft 36.01 °N, 85.56 °W | Updated 31 seconds ago

Clear
Clear
77.4 °F
Feels Like 79 °F
N
0.0
Wind Variable Wind from SSW
Gusts 0.0 mph

Today
High -- | Low -- °F
--% Chance of Precip.
Yesterday
High -- | Low -- °F
Precip. -- in
Pressure 30.11 in
Visibility 10.0 miles
Clouds Clear
Heat Index 79 °F
Dew Point 75 °F
Humidity 93%
Rainfall 0.00 in
Snow Depth Not available.
6:08 AM 7:18 PM
Last Quarter, 40% visible
METAR KSRB 260115Z AUTO 00000KT 10SM CLR 25/24 A3011 RMK
Pressure 30.11 in
Visibility 10.0 miles
Clouds Clear
Heat Index 79 °F
Dew Point 75 °F
Humidity 93%
Rainfall 0.00 in
Snow Depth Not available.
6:08 AM 7:18 PM
Last Quarter, 40% visible
METAR KSRB 260115Z AUTO 00000KT 10SM CLR 25/24 A3011 RMK
A tropical disturbance pushing toward the Bahamas, is expected to develop into a tropical depression or storm, and will likely target Florida and the Gulf Coast this weekend into next week.

Right now, the disturbance remains a broad area of low pressure pushing through the Dominican Republic and Haiti, headed toward the southeast Bahamas. Rainfall totals over 3 inches (with locally higher amounts) are expected in HispaƱiola, particularly over elevated terrain.

10-Day Weather Forecast

Almanac

Astronomy

Aug. 25, 2016 Rise Set
Actual Time
Civil Twilight
Nautical Twilight
Astronomical Twilight
Moon
Length of Visible Light
Length of Day
Tomorrow will be .
, % of the Moon is Illuminated

Today's Extremes

State Highs State Lows

Community

WunderPhotos

Upload Photos

1,935,017 photos uploaded!

WunderBlog® & News

Nearby

Air Quality

  Air Quality AQ Index Pollutant
Not available.

Snow Depth

Station Depth Elevation

Earthquake Activity

City Distance Mag. Time & Date
Minimum magnitude displayed is 2.5.

Coastal Water Temperatures

Place Temperature

Stations

Nearby Weather Stations

Station Location Temp. Windchill Dew Point Humidity Wind Precip. Elev Updated Type
                   

Watches & Warnings

There are currently no watches in effect.